Finley, North Dakota
Current Conditions -  °F | °C
As of 1:08 PM on Friday 28 Nov 2014 (Local Time) from KRDR Reporting Station
Light Snow Light Snow  
Wind Chill:   Ceiling: 3500
Heat Index: 14°   Visibility: 5mi
Dew Point:   Wind: 7mph
Humidity: 79%   Direction: 130°SE
Pressure: 29.85"   Gusts: NA
Location:  47.51°N, 97.84°W
Report Text: KRDR 281908Z AUTO 13006KT 5SM -SN SCT008 SCT016 OVC035 M10/M13 A2985 RMK AO2 SNB1856 CIG 005 RWY17
Loading
Personal Weather Stations






























Interactive Weather Map New forecast layout! Learn more

10-Day Weather Forecast

Advertisements
Track Severe Weather on mobile